sensor_id;sensor_type;location;lat;lon;timestamp;temperature;humidity
7516;DHT22;3799;47.184;8.538;2023-05-02T00:02:13;11.60;99.90
7516;DHT22;3799;47.184;8.538;2023-05-02T00:04:40;11.50;99.90
7516;DHT22;3799;47.184;8.538;2023-05-02T00:07:09;11.70;99.90
7516;DHT22;3799;47.184;8.538;2023-05-02T00:09:37;11.30;99.90
7516;DHT22;3799;47.184;8.538;2023-05-02T00:12:04;11.70;99.90
7516;DHT22;3799;47.184;8.538;2023-05-02T00:14:32;11.60;99.90
7516;DHT22;3799;47.184;8.538;2023-05-02T00:17:02;11.70;99.90
7516;DHT22;3799;47.184;8.538;2023-05-02T00:19:30;11.70;99.90
7516;DHT22;3799;47.184;8.538;2023-05-02T00:21:57;11.50;99.90
7516;DHT22;3799;47.184;8.538;2023-05-02T00:24:24;11.40;99.90
7516;DHT22;3799;47.184;8.538;2023-05-02T00:26:53;11.70;99.90
7516;DHT22;3799;47.184;8.538;2023-05-02T00:29:21;11.60;99.90
7516;DHT22;3799;47.184;8.538;2023-05-02T00:31:48;11.60;99.90
7516;DHT22;3799;47.184;8.538;2023-05-02T00:34:16;11.50;99.90
7516;DHT22;3799;47.184;8.538;2023-05-02T00:36:43;11.50;99.90
7516;DHT22;3799;47.184;8.538;2023-05-02T00:39:11;11.30;99.90
7516;DHT22;3799;47.184;8.538;2023-05-02T00:41:40;11.30;99.90
7516;DHT22;3799;47.184;8.538;2023-05-02T00:44:08;11.40;99.90
7516;DHT22;3799;47.184;8.538;2023-05-02T00:46:38;11.10;99.90
7516;DHT22;3799;47.184;8.538;2023-05-02T00:49:06;11.30;99.90
7516;DHT22;3799;47.184;8.538;2023-05-02T00:51:34;11.30;99.90
7516;DHT22;3799;47.184;8.538;2023-05-02T00:54:01;11.30;99.90
7516;DHT22;3799;47.184;8.538;2023-05-02T00:56:29;11.10;99.90
7516;DHT22;3799;47.184;8.538;2023-05-02T00:58:59;11.50;99.90
7516;DHT22;3799;47.184;8.538;2023-05-02T01:07:15;11.60;99.90
7516;DHT22;3799;47.184;8.538;2023-05-02T01:15:16;11.30;99.90
7516;DHT22;3799;47.184;8.538;2023-05-02T01:17:46;11.40;99.90
7516;DHT22;3799;47.184;8.538;2023-05-02T01:20:19;11.10;99.90
7516;DHT22;3799;47.184;8.538;2023-05-02T01:22:47;11.10;99.90
7516;DHT22;3799;47.184;8.538;2023-05-02T01:28:20;11.30;99.90
7516;DHT22;3799;47.184;8.538;2023-05-02T01:30:55;11.10;99.90
7516;DHT22;3799;47.184;8.538;2023-05-02T01:33:24;11.50;99.90
7516;DHT22;3799;47.184;8.538;2023-05-02T01:35:54;11.30;99.90
7516;DHT22;3799;47.184;8.538;2023-05-02T01:38:22;11.40;99.90
7516;DHT22;3799;47.184;8.538;2023-05-02T01:40:51;11.10;99.90
7516;DHT22;3799;47.184;8.538;2023-05-02T01:43:23;11.10;99.90
7516;DHT22;3799;47.184;8.538;2023-05-02T01:45:52;11.00;99.90
7516;DHT22;3799;47.184;8.538;2023-05-02T01:48:21;11.20;99.90
7516;DHT22;3799;47.184;8.538;2023-05-02T01:50:50;11.40;99.90
7516;DHT22;3799;47.184;8.538;2023-05-02T01:53:23;11.00;99.90
7516;DHT22;3799;47.184;8.538;2023-05-02T01:55:52;11.10;99.90
7516;DHT22;3799;47.184;8.538;2023-05-02T01:58:21;11.00;99.90
7516;DHT22;3799;47.184;8.538;2023-05-02T02:00:50;10.90;99.90
7516;DHT22;3799;47.184;8.538;2023-05-02T02:03:18;11.20;99.90
7516;DHT22;3799;47.184;8.538;2023-05-02T02:05:47;11.10;99.90
7516;DHT22;3799;47.184;8.538;2023-05-02T02:08:15;10.90;99.90
7516;DHT22;3799;47.184;8.538;2023-05-02T02:10:45;11.30;99.90
7516;DHT22;3799;47.184;8.538;2023-05-02T02:13:18;11.30;99.90
7516;DHT22;3799;47.184;8.538;2023-05-02T02:15:58;11.10;99.90
7516;DHT22;3799;47.184;8.538;2023-05-02T02:18:29;11.10;99.90
7516;DHT22;3799;47.184;8.538;2023-05-02T02:20:59;10.80;99.90
7516;DHT22;3799;47.184;8.538;2023-05-02T02:23:28;11.00;99.90
7516;DHT22;3799;47.184;8.538;2023-05-02T02:25:56;11.10;99.90
7516;DHT22;3799;47.184;8.538;2023-05-02T02:28:25;10.90;99.90
7516;DHT22;3799;47.184;8.538;2023-05-02T02:30:53;10.90;99.90
7516;DHT22;3799;47.184;8.538;2023-05-02T02:33:22;10.80;99.90
7516;DHT22;3799;47.184;8.538;2023-05-02T02:36:02;10.70;99.90
7516;DHT22;3799;47.184;8.538;2023-05-02T02:38:44;10.90;99.90
7516;DHT22;3799;47.184;8.538;2023-05-02T02:41:15;10.80;99.90
7516;DHT22;3799;47.184;8.538;2023-05-02T02:47:05;10.90;99.90
7516;DHT22;3799;47.184;8.538;2023-05-02T02:52:44;10.80;99.90
7516;DHT22;3799;47.184;8.538;2023-05-02T03:01:02;10.60;99.90
7516;DHT22;3799;47.184;8.538;2023-05-02T03:03:31;10.90;99.90
7516;DHT22;3799;47.184;8.538;2023-05-02T03:05:59;11.00;99.90
7516;DHT22;3799;47.184;8.538;2023-05-02T03:08:27;10.90;99.90
7516;DHT22;3799;47.184;8.538;2023-05-02T03:11:04;10.90;99.90
7516;DHT22;3799;47.184;8.538;2023-05-02T03:13:32;10.70;99.90
7516;DHT22;3799;47.184;8.538;2023-05-02T03:18:46;10.70;99.90
7516;DHT22;3799;47.184;8.538;2023-05-02T03:21:14;11.10;99.90
7516;DHT22;3799;47.184;8.538;2023-05-02T03:23:41;10.70;99.90
7516;DHT22;3799;47.184;8.538;2023-05-02T03:26:09;10.60;99.90
7516;DHT22;3799;47.184;8.538;2023-05-02T03:28:37;10.50;99.90
7516;DHT22;3799;47.184;8.538;2023-05-02T03:31:04;10.70;99.90
7516;DHT22;3799;47.184;8.538;2023-05-02T03:33:32;10.70;99.90
7516;DHT22;3799;47.184;8.538;2023-05-02T03:35:59;10.70;99.90
7516;DHT22;3799;47.184;8.538;2023-05-02T03:38:28;10.70;99.90
7516;DHT22;3799;47.184;8.538;2023-05-02T03:40:56;10.90;99.90
7516;DHT22;3799;47.184;8.538;2023-05-02T03:43:24;10.90;99.90
7516;DHT22;3799;47.184;8.538;2023-05-02T03:45:51;10.60;99.90
7516;DHT22;3799;47.184;8.538;2023-05-02T03:48:18;10.80;99.90
7516;DHT22;3799;47.184;8.538;2023-05-02T03:50:46;10.60;99.90
7516;DHT22;3799;47.184;8.538;2023-05-02T03:53:14;10.60;99.90
7516;DHT22;3799;47.184;8.538;2023-05-02T03:55:42;10.60;99.90
7516;DHT22;3799;47.184;8.538;2023-05-02T03:58:10;10.80;99.90
7516;DHT22;3799;47.184;8.538;2023-05-02T04:00:37;10.70;99.90
7516;DHT22;3799;47.184;8.538;2023-05-02T04:03:04;10.90;99.90
7516;DHT22;3799;47.184;8.538;2023-05-02T04:05:32;10.80;99.90
7516;DHT22;3799;47.184;8.538;2023-05-02T04:08:00;10.60;99.90
7516;DHT22;3799;47.184;8.538;2023-05-02T04:10:31;10.70;99.90
7516;DHT22;3799;47.184;8.538;2023-05-02T04:12:58;10.90;99.90
7516;DHT22;3799;47.184;8.538;2023-05-02T04:15:30;11.00;99.90
7516;DHT22;3799;47.184;8.538;2023-05-02T04:18:00;10.70;99.90
7516;DHT22;3799;47.184;8.538;2023-05-02T04:20:28;10.70;99.90
7516;DHT22;3799;47.184;8.538;2023-05-02T04:22:55;10.70;99.90
7516;DHT22;3799;47.184;8.538;2023-05-02T04:25:22;10.60;99.90
7516;DHT22;3799;47.184;8.538;2023-05-02T04:27:50;10.60;99.90
7516;DHT22;3799;47.184;8.538;2023-05-02T04:30:17;10.60;99.90
7516;DHT22;3799;47.184;8.538;2023-05-02T04:32:46;10.90;99.90
7516;DHT22;3799;47.184;8.538;2023-05-02T04:35:13;10.70;99.90
7516;DHT22;3799;47.184;8.538;2023-05-02T04:37:41;10.70;99.90
7516;DHT22;3799;47.184;8.538;2023-05-02T04:40:09;10.60;99.90
7516;DHT22;3799;47.184;8.538;2023-05-02T04:42:40;10.60;99.90
7516;DHT22;3799;47.184;8.538;2023-05-02T04:45:08;10.80;99.90
7516;DHT22;3799;47.184;8.538;2023-05-02T04:47:35;10.80;99.90
7516;DHT22;3799;47.184;8.538;2023-05-02T04:50:02;10.80;99.90
7516;DHT22;3799;47.184;8.538;2023-05-02T04:52:30;10.80;99.90
7516;DHT22;3799;47.184;8.538;2023-05-02T04:54:58;10.80;99.90
7516;DHT22;3799;47.184;8.538;2023-05-02T04:57:25;10.60;99.90
7516;DHT22;3799;47.184;8.538;2023-05-02T04:59:52;11.00;99.90
7516;DHT22;3799;47.184;8.538;2023-05-02T05:02:21;10.50;99.90
7516;DHT22;3799;47.184;8.538;2023-05-02T05:04:50;10.80;99.90
7516;DHT22;3799;47.184;8.538;2023-05-02T05:07:17;10.70;99.90
7516;DHT22;3799;47.184;8.538;2023-05-02T05:09:45;10.60;99.90
7516;DHT22;3799;47.184;8.538;2023-05-02T05:12:13;10.70;99.90
7516;DHT22;3799;47.184;8.538;2023-05-02T05:14:43;10.90;99.90
7516;DHT22;3799;47.184;8.538;2023-05-02T05:17:12;11.00;99.90
7516;DHT22;3799;47.184;8.538;2023-05-02T05:19:39;10.80;99.90
7516;DHT22;3799;47.184;8.538;2023-05-02T05:22:07;10.70;99.90
7516;DHT22;3799;47.184;8.538;2023-05-02T05:24:35;11.00;99.90
7516;DHT22;3799;47.184;8.538;2023-05-02T05:27:02;10.80;99.90
7516;DHT22;3799;47.184;8.538;2023-05-02T05:29:30;10.80;99.90
7516;DHT22;3799;47.184;8.538;2023-05-02T05:31:59;11.10;99.90
7516;DHT22;3799;47.184;8.538;2023-05-02T05:34:26;11.30;99.90
7516;DHT22;3799;47.184;8.538;2023-05-02T05:36:54;11.30;99.90
7516;DHT22;3799;47.184;8.538;2023-05-02T05:39:21;11.40;99.90
7516;DHT22;3799;47.184;8.538;2023-05-02T05:41:48;11.10;99.90
7516;DHT22;3799;47.184;8.538;2023-05-02T05:44:16;11.30;99.90
7516;DHT22;3799;47.184;8.538;2023-05-02T05:46:43;11.30;99.90
7516;DHT22;3799;47.184;8.538;2023-05-02T05:49:10;11.50;99.90
7516;DHT22;3799;47.184;8.538;2023-05-02T05:51:38;11.20;99.90
7516;DHT22;3799;47.184;8.538;2023-05-02T05:54:06;11.40;99.90
7516;DHT22;3799;47.184;8.538;2023-05-02T05:56:33;11.30;99.90
7516;DHT22;3799;47.184;8.538;2023-05-02T05:59:01;11.60;99.90
7516;DHT22;3799;47.184;8.538;2023-05-02T06:01:44;11.40;99.90
7516;DHT22;3799;47.184;8.538;2023-05-02T06:04:11;11.60;99.90
7516;DHT22;3799;47.184;8.538;2023-05-02T06:06:39;11.60;99.90
7516;DHT22;3799;47.184;8.538;2023-05-02T06:09:06;11.50;99.90
7516;DHT22;3799;47.184;8.538;2023-05-02T06:11:35;11.40;99.90
7516;DHT22;3799;47.184;8.538;2023-05-02T06:14:03;11.70;99.90
7516;DHT22;3799;47.184;8.538;2023-05-02T06:16:31;11.70;99.90
7516;DHT22;3799;47.184;8.538;2023-05-02T06:18:59;11.40;99.90
7516;DHT22;3799;47.184;8.538;2023-05-02T06:21:27;11.60;99.90
7516;DHT22;3799;47.184;8.538;2023-05-02T06:23:56;11.40;99.90
7516;DHT22;3799;47.184;8.538;2023-05-02T06:26:23;11.70;99.90
7516;DHT22;3799;47.184;8.538;2023-05-02T06:28:53;11.70;99.90
7516;DHT22;3799;47.184;8.538;2023-05-02T06:31:20;11.70;99.90
7516;DHT22;3799;47.184;8.538;2023-05-02T06:33:48;11.80;99.90
7516;DHT22;3799;47.184;8.538;2023-05-02T06:36:15;11.90;99.90
7516;DHT22;3799;47.184;8.538;2023-05-02T06:38:42;11.90;99.90
7516;DHT22;3799;47.184;8.538;2023-05-02T06:41:13;12.00;99.90
7516;DHT22;3799;47.184;8.538;2023-05-02T06:43:44;12.20;99.90
7516;DHT22;3799;47.184;8.538;2023-05-02T06:46:11;12.00;99.90
7516;DHT22;3799;47.184;8.538;2023-05-02T06:48:39;12.40;99.90
7516;DHT22;3799;47.184;8.538;2023-05-02T06:51:06;12.70;99.90
7516;DHT22;3799;47.184;8.538;2023-05-02T06:53:33;12.80;99.90
7516;DHT22;3799;47.184;8.538;2023-05-02T06:56:00;13.00;99.90
7516;DHT22;3799;47.184;8.538;2023-05-02T06:58:31;13.30;99.90
7516;DHT22;3799;47.184;8.538;2023-05-02T07:00:59;13.20;99.90
7516;DHT22;3799;47.184;8.538;2023-05-02T07:03:27;13.30;99.90
7516;DHT22;3799;47.184;8.538;2023-05-02T07:05:54;13.20;99.90
7516;DHT22;3799;47.184;8.538;2023-05-02T07:08:22;13.20;99.90
7516;DHT22;3799;47.184;8.538;2023-05-02T07:10:52;12.80;99.90
7516;DHT22;3799;47.184;8.538;2023-05-02T07:13:19;12.90;99.90
7516;DHT22;3799;47.184;8.538;2023-05-02T07:15:47;13.20;99.90
7516;DHT22;3799;47.184;8.538;2023-05-02T07:18:14;12.80;99.90
7516;DHT22;3799;47.184;8.538;2023-05-02T07:20:42;12.90;99.90
7516;DHT22;3799;47.184;8.538;2023-05-02T07:23:09;13.20;99.90
7516;DHT22;3799;47.184;8.538;2023-05-02T07:25:36;13.10;99.90
7516;DHT22;3799;47.184;8.538;2023-05-02T07:28:04;13.10;99.90
7516;DHT22;3799;47.184;8.538;2023-05-02T07:30:32;13.20;99.90
7516;DHT22;3799;47.184;8.538;2023-05-02T07:32:59;13.40;99.90
7516;DHT22;3799;47.184;8.538;2023-05-02T07:35:26;13.30;99.90
7516;DHT22;3799;47.184;8.538;2023-05-02T07:37:54;13.20;99.90
7516;DHT22;3799;47.184;8.538;2023-05-02T07:40:22;13.50;99.90
7516;DHT22;3799;47.184;8.538;2023-05-02T07:42:53;13.40;99.90
7516;DHT22;3799;47.184;8.538;2023-05-02T07:45:20;13.40;99.90
7516;DHT22;3799;47.184;8.538;2023-05-02T07:47:47;13.40;99.90
7516;DHT22;3799;47.184;8.538;2023-05-02T07:50:15;13.70;99.90
7516;DHT22;3799;47.184;8.538;2023-05-02T07:52:43;13.70;99.90
7516;DHT22;3799;47.184;8.538;2023-05-02T07:55:10;13.70;99.90
7516;DHT22;3799;47.184;8.538;2023-05-02T07:57:38;13.70;99.90
7516;DHT22;3799;47.184;8.538;2023-05-02T08:00:08;13.90;99.90
7516;DHT22;3799;47.184;8.538;2023-05-02T08:02:36;14.00;99.90
7516;DHT22;3799;47.184;8.538;2023-05-02T08:05:04;13.80;99.90
7516;DHT22;3799;47.184;8.538;2023-05-02T08:07:31;14.00;99.90
7516;DHT22;3799;47.184;8.538;2023-05-02T08:10:04;13.70;99.90
7516;DHT22;3799;47.184;8.538;2023-05-02T08:12:32;14.00;99.90
7516;DHT22;3799;47.184;8.538;2023-05-02T08:15:08;13.90;99.90
7516;DHT22;3799;47.184;8.538;2023-05-02T08:17:36;13.70;99.90
7516;DHT22;3799;47.184;8.538;2023-05-02T08:20:04;13.70;99.90
7516;DHT22;3799;47.184;8.538;2023-05-02T08:22:31;13.70;99.90
7516;DHT22;3799;47.184;8.538;2023-05-02T08:24:59;13.50;99.90
7516;DHT22;3799;47.184;8.538;2023-05-02T08:27:26;13.70;99.90
7516;DHT22;3799;47.184;8.538;2023-05-02T08:29:54;14.00;99.90
7516;DHT22;3799;47.184;8.538;2023-05-02T08:32:23;14.10;99.90
7516;DHT22;3799;47.184;8.538;2023-05-02T08:34:55;14.10;99.90
7516;DHT22;3799;47.184;8.538;2023-05-02T08:37:25;14.00;99.90
7516;DHT22;3799;47.184;8.538;2023-05-02T08:39:53;14.10;99.90
7516;DHT22;3799;47.184;8.538;2023-05-02T08:42:20;14.10;99.90
7516;DHT22;3799;47.184;8.538;2023-05-02T08:44:48;14.10;99.90
7516;DHT22;3799;47.184;8.538;2023-05-02T08:47:17;14.20;99.90
7516;DHT22;3799;47.184;8.538;2023-05-02T08:49:45;14.30;99.90
7516;DHT22;3799;47.184;8.538;2023-05-02T08:52:13;14.50;99.90
7516;DHT22;3799;47.184;8.538;2023-05-02T08:54:42;14.70;99.90
7516;DHT22;3799;47.184;8.538;2023-05-02T08:57:10;14.50;99.90
7516;DHT22;3799;47.184;8.538;2023-05-02T08:59:38;14.80;99.90
7516;DHT22;3799;47.184;8.538;2023-05-02T09:05:06;14.50;99.90
7516;DHT22;3799;47.184;8.538;2023-05-02T09:07:44;14.80;99.90
7516;DHT22;3799;47.184;8.538;2023-05-02T09:10:13;15.00;99.90
7516;DHT22;3799;47.184;8.538;2023-05-02T09:12:41;15.10;99.90
7516;DHT22;3799;47.184;8.538;2023-05-02T09:15:13;15.30;99.90
7516;DHT22;3799;47.184;8.538;2023-05-02T09:17:47;15.40;99.90
7516;DHT22;3799;47.184;8.538;2023-05-02T09:20:15;15.40;99.90
7516;DHT22;3799;47.184;8.538;2023-05-02T09:22:50;15.50;99.90
7516;DHT22;3799;47.184;8.538;2023-05-02T09:25:21;15.50;99.90
7516;DHT22;3799;47.184;8.538;2023-05-02T09:27:50;15.50;99.90
7516;DHT22;3799;47.184;8.538;2023-05-02T09:30:20;15.50;99.90
7516;DHT22;3799;47.184;8.538;2023-05-02T09:32:48;15.50;99.90
7516;DHT22;3799;47.184;8.538;2023-05-02T09:35:20;15.80;99.90
7516;DHT22;3799;47.184;8.538;2023-05-02T09:37:54;15.50;99.90
7516;DHT22;3799;47.184;8.538;2023-05-02T09:40:23;15.60;99.90
7516;DHT22;3799;47.184;8.538;2023-05-02T09:42:51;15.80;99.90
7516;DHT22;3799;47.184;8.538;2023-05-02T09:45:23;16.00;99.90
7516;DHT22;3799;47.184;8.538;2023-05-02T09:47:51;15.80;99.90
7516;DHT22;3799;47.184;8.538;2023-05-02T09:50:33;16.20;99.90
7516;DHT22;3799;47.184;8.538;2023-05-02T09:53:06;15.90;99.90
7516;DHT22;3799;47.184;8.538;2023-05-02T09:55:33;16.50;99.90
7516;DHT22;3799;47.184;8.538;2023-05-02T09:58:01;16.40;99.90
7516;DHT22;3799;47.184;8.538;2023-05-02T10:00:42;16.70;99.90
7516;DHT22;3799;47.184;8.538;2023-05-02T10:03:14;16.80;99.90
7516;DHT22;3799;47.184;8.538;2023-05-02T10:05:46;17.00;99.90
7516;DHT22;3799;47.184;8.538;2023-05-02T10:08:16;17.10;99.90
7516;DHT22;3799;47.184;8.538;2023-05-02T10:10:51;17.10;99.90
7516;DHT22;3799;47.184;8.538;2023-05-02T10:13:21;16.90;99.30
7516;DHT22;3799;47.184;8.538;2023-05-02T10:15:54;17.20;98.90
7516;DHT22;3799;47.184;8.538;2023-05-02T10:18:27;17.30;99.10
7516;DHT22;3799;47.184;8.538;2023-05-02T10:21:00;17.30;98.10
7516;DHT22;3799;47.184;8.538;2023-05-02T10:23:32;17.50;96.40
7516;DHT22;3799;47.184;8.538;2023-05-02T10:26:00;17.40;97.20
7516;DHT22;3799;47.184;8.538;2023-05-02T10:28:29;17.30;97.60
7516;DHT22;3799;47.184;8.538;2023-05-02T10:30:57;17.20;94.80
7516;DHT22;3799;47.184;8.538;2023-05-02T10:33:27;17.60;95.70
7516;DHT22;3799;47.184;8.538;2023-05-02T10:35:57;17.60;96.50
7516;DHT22;3799;47.184;8.538;2023-05-02T10:38:25;17.70;95.40
7516;DHT22;3799;47.184;8.538;2023-05-02T10:40:56;17.70;96.00
7516;DHT22;3799;47.184;8.538;2023-05-02T10:43:27;17.30;95.90
7516;DHT22;3799;47.184;8.538;2023-05-02T10:45:55;17.80;95.60
7516;DHT22;3799;47.184;8.538;2023-05-02T10:48:24;18.10;96.00
7516;DHT22;3799;47.184;8.538;2023-05-02T10:50:58;18.60;95.50
7516;DHT22;3799;47.184;8.538;2023-05-02T10:53:34;18.90;92.10
7516;DHT22;3799;47.184;8.538;2023-05-02T10:56:18;18.90;90.00
7516;DHT22;3799;47.184;8.538;2023-05-02T10:58:50;19.10;89.30
7516;DHT22;3799;47.184;8.538;2023-05-02T11:04:06;19.30;84.80
7516;DHT22;3799;47.184;8.538;2023-05-02T11:07:38;19.50;86.10
7516;DHT22;3799;47.184;8.538;2023-05-02T11:09:40;19.80;82.20
7516;DHT22;3799;47.184;8.538;2023-05-02T11:12:08;20.10;81.20
7516;DHT22;3799;47.184;8.538;2023-05-02T11:17:07;20.20;76.80
7516;DHT22;3799;47.184;8.538;2023-05-02T11:24:48;19.90;70.50
7516;DHT22;3799;47.184;8.538;2023-05-02T11:30:01;20.00;70.60
7516;DHT22;3799;47.184;8.538;2023-05-02T11:35:17;19.90;67.30
7516;DHT22;3799;47.184;8.538;2023-05-02T11:37:59;20.20;66.70
7516;DHT22;3799;47.184;8.538;2023-05-02T11:40:27;20.40;67.90
7516;DHT22;3799;47.184;8.538;2023-05-02T11:42:57;20.60;67.90
7516;DHT22;3799;47.184;8.538;2023-05-02T11:45:33;20.60;66.10
7516;DHT22;3799;47.184;8.538;2023-05-02T11:48:04;20.80;65.60
7516;DHT22;3799;47.184;8.538;2023-05-02T11:50:56;20.80;61.70
7516;DHT22;3799;47.184;8.538;2023-05-02T11:53:24;21.10;61.00
7516;DHT22;3799;47.184;8.538;2023-05-02T11:55:54;21.30;60.50
7516;DHT22;3799;47.184;8.538;2023-05-02T11:58:25;21.50;57.90
7516;DHT22;3799;47.184;8.538;2023-05-02T12:00:56;21.70;56.90
7516;DHT22;3799;47.184;8.538;2023-05-02T12:03:31;21.80;56.70
7516;DHT22;3799;47.184;8.538;2023-05-02T12:06:10;21.80;55.60
7516;DHT22;3799;47.184;8.538;2023-05-02T12:08:39;21.70;54.90
7516;DHT22;3799;47.184;8.538;2023-05-02T12:11:07;21.60;55.00
7516;DHT22;3799;47.184;8.538;2023-05-02T12:13:54;21.50;54.10
7516;DHT22;3799;47.184;8.538;2023-05-02T12:16:22;21.30;53.90
7516;DHT22;3799;47.184;8.538;2023-05-02T12:18:49;21.20;54.80
7516;DHT22;3799;47.184;8.538;2023-05-02T12:21:17;21.10;54.90
7516;DHT22;3799;47.184;8.538;2023-05-02T12:23:45;21.30;56.80
7516;DHT22;3799;47.184;8.538;2023-05-02T12:26:18;21.00;56.10
7516;DHT22;3799;47.184;8.538;2023-05-02T12:28:50;20.80;56.00
7516;DHT22;3799;47.184;8.538;2023-05-02T12:31:17;20.40;55.60
7516;DHT22;3799;47.184;8.538;2023-05-02T12:33:46;20.30;56.60
7516;DHT22;3799;47.184;8.538;2023-05-02T12:36:19;20.80;56.60
7516;DHT22;3799;47.184;8.538;2023-05-02T12:38:51;21.40;56.00
7516;DHT22;3799;47.184;8.538;2023-05-02T12:41:32;21.90;54.70
7516;DHT22;3799;47.184;8.538;2023-05-02T12:44:00;22.40;53.30
7516;DHT22;3799;47.184;8.538;2023-05-02T12:46:28;22.70;52.00
7516;DHT22;3799;47.184;8.538;2023-05-02T12:49:06;22.90;51.10
7516;DHT22;3799;47.184;8.538;2023-05-02T12:51:37;23.00;51.60
7516;DHT22;3799;47.184;8.538;2023-05-02T12:54:06;23.10;51.00
7516;DHT22;3799;47.184;8.538;2023-05-02T12:56:38;23.60;51.10
7516;DHT22;3799;47.184;8.538;2023-05-02T12:59:06;23.80;49.40
7516;DHT22;3799;47.184;8.538;2023-05-02T13:01:34;23.60;48.90
7516;DHT22;3799;47.184;8.538;2023-05-02T13:04:02;23.30;48.70
7516;DHT22;3799;47.184;8.538;2023-05-02T13:06:30;22.80;49.80
7516;DHT22;3799;47.184;8.538;2023-05-02T13:08:59;22.60;51.60
7516;DHT22;3799;47.184;8.538;2023-05-02T13:11:26;22.80;51.60
7516;DHT22;3799;47.184;8.538;2023-05-02T13:13:54;22.80;49.80
7516;DHT22;3799;47.184;8.538;2023-05-02T13:16:22;22.70;49.90
7516;DHT22;3799;47.184;8.538;2023-05-02T13:18:50;22.40;49.50
7516;DHT22;3799;47.184;8.538;2023-05-02T13:21:18;22.00;49.90
7516;DHT22;3799;47.184;8.538;2023-05-02T13:23:48;21.60;49.80
7516;DHT22;3799;47.184;8.538;2023-05-02T13:26:17;21.30;50.50
7516;DHT22;3799;47.184;8.538;2023-05-02T13:28:45;21.00;51.80
7516;DHT22;3799;47.184;8.538;2023-05-02T13:31:12;20.60;52.00
7516;DHT22;3799;47.184;8.538;2023-05-02T13:33:39;20.50;52.50
7516;DHT22;3799;47.184;8.538;2023-05-02T13:36:07;19.90;53.30
7516;DHT22;3799;47.184;8.538;2023-05-02T13:38:35;19.50;54.50
7516;DHT22;3799;47.184;8.538;2023-05-02T13:41:02;19.60;55.70
7516;DHT22;3799;47.184;8.538;2023-05-02T13:43:29;19.40;55.60
7516;DHT22;3799;47.184;8.538;2023-05-02T13:45:57;19.10;55.20
7516;DHT22;3799;47.184;8.538;2023-05-02T13:48:25;19.00;55.50
7516;DHT22;3799;47.184;8.538;2023-05-02T13:50:52;19.10;56.50
7516;DHT22;3799;47.184;8.538;2023-05-02T13:53:20;19.20;57.40
7516;DHT22;3799;47.184;8.538;2023-05-02T13:55:47;19.40;57.10
7516;DHT22;3799;47.184;8.538;2023-05-02T13:58:15;20.00;56.80
7516;DHT22;3799;47.184;8.538;2023-05-02T14:00:42;20.10;55.70
7516;DHT22;3799;47.184;8.538;2023-05-02T14:03:09;20.30;55.10
7516;DHT22;3799;47.184;8.538;2023-05-02T14:05:37;20.40;55.70
7516;DHT22;3799;47.184;8.538;2023-05-02T14:08:10;20.20;56.90
7516;DHT22;3799;47.184;8.538;2023-05-02T14:10:37;20.40;57.30
7516;DHT22;3799;47.184;8.538;2023-05-02T14:13:05;20.10;57.80
7516;DHT22;3799;47.184;8.538;2023-05-02T14:15:32;19.90;58.30
7516;DHT22;3799;47.184;8.538;2023-05-02T14:18:00;19.70;58.80
7516;DHT22;3799;47.184;8.538;2023-05-02T14:20:27;19.60;59.00
7516;DHT22;3799;47.184;8.538;2023-05-02T14:22:55;19.10;59.20
7516;DHT22;3799;47.184;8.538;2023-05-02T14:25:22;18.90;59.50
7516;DHT22;3799;47.184;8.538;2023-05-02T14:27:50;18.70;60.40
7516;DHT22;3799;47.184;8.538;2023-05-02T14:30:17;18.30;61.70
7516;DHT22;3799;47.184;8.538;2023-05-02T14:32:44;18.00;65.50
7516;DHT22;3799;47.184;8.538;2023-05-02T14:35:12;17.70;67.80
7516;DHT22;3799;47.184;8.538;2023-05-02T14:37:39;17.30;70.70
7516;DHT22;3799;47.184;8.538;2023-05-02T14:40:07;17.30;76.10
7516;DHT22;3799;47.184;8.538;2023-05-02T14:42:34;16.80;84.20
7516;DHT22;3799;47.184;8.538;2023-05-02T14:45:05;17.10;88.60
7516;DHT22;3799;47.184;8.538;2023-05-02T14:47:33;17.10;93.00
7516;DHT22;3799;47.184;8.538;2023-05-02T14:50:02;16.60;97.30
7516;DHT22;3799;47.184;8.538;2023-05-02T14:52:30;16.50;99.90
7516;DHT22;3799;47.184;8.538;2023-05-02T14:55:01;16.50;99.00
7516;DHT22;3799;47.184;8.538;2023-05-02T14:57:28;16.80;99.80
7516;DHT22;3799;47.184;8.538;2023-05-02T14:59:56;16.60;99.90
7516;DHT22;3799;47.184;8.538;2023-05-02T15:02:33;16.70;98.40
7516;DHT22;3799;47.184;8.538;2023-05-02T15:05:01;16.60;98.60
7516;DHT22;3799;47.184;8.538;2023-05-02T15:07:29;16.90;96.70
7516;DHT22;3799;47.184;8.538;2023-05-02T15:09:57;16.50;96.70
7516;DHT22;3799;47.184;8.538;2023-05-02T15:12:24;17.00;97.50
7516;DHT22;3799;47.184;8.538;2023-05-02T15:14:52;17.20;98.00
7516;DHT22;3799;47.184;8.538;2023-05-02T15:17:19;17.20;97.90
7516;DHT22;3799;47.184;8.538;2023-05-02T15:19:47;17.40;97.10
7516;DHT22;3799;47.184;8.538;2023-05-02T15:22:14;17.50;94.90
7516;DHT22;3799;47.184;8.538;2023-05-02T15:24:44;17.80;93.30
7516;DHT22;3799;47.184;8.538;2023-05-02T15:27:12;18.20;91.60
7516;DHT22;3799;47.184;8.538;2023-05-02T15:29:39;18.80;91.00
7516;DHT22;3799;47.184;8.538;2023-05-02T15:32:07;20.00;84.40
7516;DHT22;3799;47.184;8.538;2023-05-02T15:34:34;20.60;72.70
7516;DHT22;3799;47.184;8.538;2023-05-02T15:37:02;20.80;67.40
7516;DHT22;3799;47.184;8.538;2023-05-02T15:39:30;21.00;65.80
7516;DHT22;3799;47.184;8.538;2023-05-02T15:41:57;21.20;61.50
7516;DHT22;3799;47.184;8.538;2023-05-02T15:44:35;21.60;59.90
7516;DHT22;3799;47.184;8.538;2023-05-02T15:47:05;22.10;59.30
7516;DHT22;3799;47.184;8.538;2023-05-02T15:49:33;22.50;59.20
7516;DHT22;3799;47.184;8.538;2023-05-02T15:52:02;22.90;58.50
7516;DHT22;3799;47.184;8.538;2023-05-02T15:54:29;23.30;55.70
7516;DHT22;3799;47.184;8.538;2023-05-02T15:56:59;23.80;53.80
7516;DHT22;3799;47.184;8.538;2023-05-02T15:59:28;24.30;51.70
7516;DHT22;3799;47.184;8.538;2023-05-02T16:01:56;24.80;50.30
7516;DHT22;3799;47.184;8.538;2023-05-02T16:04:23;24.80;49.70
7516;DHT22;3799;47.184;8.538;2023-05-02T16:06:51;24.90;47.80
7516;DHT22;3799;47.184;8.538;2023-05-02T16:09:18;24.60;47.90
7516;DHT22;3799;47.184;8.538;2023-05-02T16:11:47;24.10;48.50
7516;DHT22;3799;47.184;8.538;2023-05-02T16:14:15;23.60;49.20
7516;DHT22;3799;47.184;8.538;2023-05-02T16:16:43;23.70;48.40
7516;DHT22;3799;47.184;8.538;2023-05-02T16:19:10;24.10;48.60
7516;DHT22;3799;47.184;8.538;2023-05-02T16:21:40;24.60;48.80
7516;DHT22;3799;47.184;8.538;2023-05-02T16:24:08;24.90;47.40
7516;DHT22;3799;47.184;8.538;2023-05-02T16:26:35;24.80;46.80
7516;DHT22;3799;47.184;8.538;2023-05-02T16:29:03;24.70;46.90
7516;DHT22;3799;47.184;8.538;2023-05-02T16:31:30;24.80;47.30
7516;DHT22;3799;47.184;8.538;2023-05-02T16:33:58;25.00;48.00
7516;DHT22;3799;47.184;8.538;2023-05-02T16:36:25;25.20;47.60
7516;DHT22;3799;47.184;8.538;2023-05-02T16:38:55;25.30;47.20
7516;DHT22;3799;47.184;8.538;2023-05-02T16:41:23;25.40;47.10
7516;DHT22;3799;47.184;8.538;2023-05-02T16:43:50;25.50;46.70
7516;DHT22;3799;47.184;8.538;2023-05-02T16:46:17;25.60;46.60
7516;DHT22;3799;47.184;8.538;2023-05-02T16:48:46;25.60;46.10
7516;DHT22;3799;47.184;8.538;2023-05-02T16:51:13;25.60;46.00
7516;DHT22;3799;47.184;8.538;2023-05-02T16:53:41;25.50;45.50
7516;DHT22;3799;47.184;8.538;2023-05-02T16:56:09;25.50;45.70
7516;DHT22;3799;47.184;8.538;2023-05-02T16:58:37;25.40;45.30
7516;DHT22;3799;47.184;8.538;2023-05-02T17:01:04;25.30;45.30
7516;DHT22;3799;47.184;8.538;2023-05-02T17:03:32;25.20;45.50